Time;durP1;ratioP1;P1;durP2;ratioP2;P2;SDS_P1;SDS_P2;PMS_P1;PMS_P2;Temp;Humidity;BMP_temperature;BMP_pressure;BME280_temperature;BME280_humidity;BME280_pressure;Samples;Min_cycle;Max_cycle;Signal;HPM_P1;HPM_P2
2021/12/27 00:00:22;;;;;;;5.30;4.70;;;;;;;;;;5006212;28;20030;-49
2021/12/27 00:02:50;;;;;;;7.55;6.47;;;;;;;;;;5004753;28;20034;-49
2021/12/27 00:05:16;;;;;;;7.68;6.43;;;;;;;;;;5007189;28;20366;-52
2021/12/27 00:07:43;;;;;;;6.72;6.03;;;;;;;;;;5007324;28;20033;-49
2021/12/27 00:10:10;;;;;;;8.00;5.57;;;;;;;;;;5006342;28;20068;-49
2021/12/27 00:12:35;;;;;;;9.40;5.47;;;;;;;;;;5003323;28;20049;-48
2021/12/27 00:15:01;;;;;;;11.63;5.00;;;;;;;;;;5007005;28;20034;-51
2021/12/27 00:17:26;;;;;;;10.90;6.68;;;;;;;;;;4999357;28;20030;-48
2021/12/27 00:19:51;;;;;;;5.07;4.55;;;;;;;;;;4996874;28;20125;-50
2021/12/27 00:22:17;;;;;;;11.10;5.63;;;;;;;;;;5005073;28;20026;-50
2021/12/27 00:24:46;;;;;;;8.05;5.50;;;;;;;;;;5002083;28;20034;-52
2021/12/27 00:27:14;;;;;;;7.05;5.65;;;;;;;;;;5006658;28;20368;-47
2021/12/27 00:29:39;;;;;;;6.60;5.40;;;;;;;;;;5002406;28;20048;-48
2021/12/27 00:32:05;;;;;;;6.43;5.63;;;;;;;;;;5008237;28;20448;-50
2021/12/27 00:34:30;;;;;;;8.27;6.60;;;;;;;;;;5007372;28;20188;-48
2021/12/27 00:36:55;;;;;;;5.05;4.15;;;;;;;;;;5009071;28;20060;-47
2021/12/27 00:39:21;;;;;;;6.75;5.65;;;;;;;;;;5005128;28;20537;-47
2021/12/27 00:41:46;;;;;;;4.63;4.22;;;;;;;;;;5002912;28;20027;-50
2021/12/27 00:44:11;;;;;;;6.15;5.55;;;;;;;;;;5010620;28;20092;-47
2021/12/27 00:46:37;;;;;;;6.03;5.43;;;;;;;;;;5010316;28;20065;-47
2021/12/27 00:49:02;;;;;;;6.40;5.38;;;;;;;;;;5006402;28;20100;-48
2021/12/27 00:51:28;;;;;;;6.40;5.80;;;;;;;;;;5007079;28;20333;-51
2021/12/27 00:53:53;;;;;;;6.68;5.97;;;;;;;;;;5006496;28;20028;-48
2021/12/27 00:56:18;;;;;;;6.18;5.57;;;;;;;;;;5003809;28;20125;-52
2021/12/27 00:58:44;;;;;;;5.22;4.72;;;;;;;;;;5002920;28;20030;-50
2021/12/27 01:01:09;;;;;;;6.40;5.45;;;;;;;;;;5003409;28;20034;-49
2021/12/27 01:03:35;;;;;;;6.68;6.07;;;;;;;;;;5010496;28;20037;-49
2021/12/27 01:06:00;;;;;;;4.75;4.25;;;;;;;;;;5008067;28;20121;-48
2021/12/27 01:08:26;;;;;;;5.20;4.75;;;;;;;;;;5009745;28;20068;-50
2021/12/27 01:13:47;;;;;;;5.30;4.75;;;;;;;;;;5010823;28;20045;-48
2021/12/27 01:16:14;;;;;;;6.30;5.30;;;;;;;;;;5009874;28;20443;-50
2021/12/27 01:18:47;;;;;;;5.20;4.57;;;;;;;;;;5007678;28;20455;-49
2021/12/27 01:21:16;;;;;;;6.00;5.38;;;;;;;;;;5012379;28;20040;-49
2021/12/27 01:23:41;;;;;;;5.25;4.75;;;;;;;;;;5015537;28;20052;-51
2021/12/27 01:26:07;;;;;;;6.10;5.30;;;;;;;;;;5007256;28;20031;-51
2021/12/27 01:28:32;;;;;;;5.95;5.30;;;;;;;;;;5004949;28;20045;-49
2021/12/27 01:30:58;;;;;;;6.38;5.78;;;;;;;;;;5004908;28;20041;-52
2021/12/27 01:33:25;;;;;;;6.13;4.78;;;;;;;;;;5000890;28;20091;-52
2021/12/27 01:35:51;;;;;;;5.88;5.28;;;;;;;;;;4998988;28;22645;-48
2021/12/27 01:38:17;;;;;;;6.07;5.30;;;;;;;;;;5003631;28;20452;-51
2021/12/27 01:40:45;;;;;;;6.13;5.53;;;;;;;;;;5006818;28;20041;-53
2021/12/27 01:43:19;;;;;;;4.80;4.40;;;;;;;;;;5007371;28;20037;-55
2021/12/27 01:45:47;;;;;;;10.55;5.55;;;;;;;;;;5008094;28;20376;-51
2021/12/27 01:48:16;;;;;;;4.75;4.25;;;;;;;;;;5007418;28;20431;-52
2021/12/27 01:50:44;;;;;;;5.57;4.88;;;;;;;;;;5005864;28;20033;-53
2021/12/27 01:53:10;;;;;;;5.47;4.80;;;;;;;;;;5006668;28;20033;-53
2021/12/27 01:55:37;;;;;;;10.32;5.97;;;;;;;;;;5010885;28;20033;-51
2021/12/27 01:58:04;;;;;;;5.45;4.40;;;;;;;;;;5008075;28;20451;-52
2021/12/27 02:00:30;;;;;;;6.22;4.80;;;;;;;;;;5005324;28;20045;-50
2021/12/27 02:02:55;;;;;;;8.55;6.18;;;;;;;;;;5008208;28;20369;-50
2021/12/27 02:05:21;;;;;;;5.05;4.55;;;;;;;;;;5006550;28;20038;-52
2021/12/27 02:07:47;;;;;;;4.32;3.92;;;;;;;;;;5012253;28;20026;-53
2021/12/27 02:10:13;;;;;;;4.88;4.38;;;;;;;;;;5004670;28;20038;-53
2021/12/27 02:12:40;;;;;;;8.75;5.60;;;;;;;;;;5004410;28;20328;-53
2021/12/27 02:15:09;;;;;;;6.15;5.55;;;;;;;;;;5007935;28;20045;-54
2021/12/27 02:17:37;;;;;;;7.43;6.20;;;;;;;;;;5007054;28;20030;-51
2021/12/27 02:20:16;;;;;;;7.45;6.05;;;;;;;;;;5007419;28;20025;-51
2021/12/27 02:22:43;;;;;;;5.38;4.88;;;;;;;;;;5010696;28;20121;-53
2021/12/27 02:25:09;;;;;;;7.80;5.57;;;;;;;;;;5006093;28;20032;-50
2021/12/27 02:27:35;;;;;;;14.82;4.88;;;;;;;;;;5006466;28;20128;-51
2021/12/27 02:30:01;;;;;;;6.63;6.03;;;;;;;;;;5005699;28;20036;-50
2021/12/27 02:32:27;;;;;;;4.38;3.95;;;;;;;;;;5008856;28;20038;-50
2021/12/27 02:34:52;;;;;;;4.35;3.80;;;;;;;;;;5007403;28;20026;-49
2021/12/27 02:37:18;;;;;;;6.03;4.70;;;;;;;;;;5009542;28;20033;-49
2021/12/27 02:39:46;;;;;;;6.35;5.60;;;;;;;;;;5003286;28;20085;-49
2021/12/27 02:42:19;;;;;;;5.03;4.53;;;;;;;;;;5006154;28;20058;-50
2021/12/27 02:44:45;;;;;;;6.88;5.57;;;;;;;;;;5002443;28;20105;-50
2021/12/27 02:47:10;;;;;;;6.78;4.88;;;;;;;;;;4999276;28;20129;-50
2021/12/27 02:49:36;;;;;;;6.55;5.65;;;;;;;;;;5008207;28;20582;-49
2021/12/27 02:52:01;;;;;;;5.68;5.13;;;;;;;;;;5002743;28;20030;-51
2021/12/27 02:54:27;;;;;;;6.47;5.28;;;;;;;;;;5005372;28;20037;-53
2021/12/27 02:56:52;;;;;;;7.18;4.57;;;;;;;;;;5009942;28;20494;-51
2021/12/27 02:59:18;;;;;;;6.65;6.00;;;;;;;;;;5014531;28;20046;-50
2021/12/27 03:01:43;;;;;;;7.50;6.55;;;;;;;;;;5006205;28;20038;-49
2021/12/27 03:04:09;;;;;;;5.18;4.32;;;;;;;;;;5005311;28;20697;-51
2021/12/27 03:06:34;;;;;;;7.72;5.70;;;;;;;;;;5005050;28;20463;-51
2021/12/27 03:09:00;;;;;;;6.40;4.78;;;;;;;;;;5010371;28;20634;-54
2021/12/27 03:11:25;;;;;;;6.00;5.45;;;;;;;;;;5008260;28;20038;-53
2021/12/27 03:13:51;;;;;;;5.88;5.25;;;;;;;;;;5007341;28;20037;-53
2021/12/27 03:16:19;;;;;;;4.85;4.35;;;;;;;;;;5004675;28;20046;-52
2021/12/27 03:18:49;;;;;;;6.97;4.90;;;;;;;;;;5002672;28;20104;-52
2021/12/27 03:21:14;;;;;;;6.25;5.47;;;;;;;;;;5003247;28;20041;-50
2021/12/27 03:23:42;;;;;;;10.82;6.22;;;;;;;;;;5000889;28;20081;-52
2021/12/27 03:26:08;;;;;;;7.50;5.78;;;;;;;;;;5004293;28;20037;-52
2021/12/27 03:28:35;;;;;;;5.82;4.95;;;;;;;;;;5006033;28;20099;-49
2021/12/27 03:31:01;;;;;;;5.30;3.97;;;;;;;;;;5008428;28;20488;-50
2021/12/27 03:33:27;;;;;;;9.88;5.80;;;;;;;;;;5003512;28;20041;-50
2021/12/27 03:36:02;;;;;;;7.43;5.88;;;;;;;;;;5004444;28;20090;-52
2021/12/27 03:38:35;;;;;;;7.10;4.75;;;;;;;;;;5001244;28;20122;-50
2021/12/27 03:41:02;;;;;;;4.72;4.22;;;;;;;;;;5006524;28;20091;-53
2021/12/27 03:43:28;;;;;;;8.70;6.40;;;;;;;;;;5003654;28;21750;-50
2021/12/27 03:45:53;;;;;;;9.93;6.53;;;;;;;;;;5003906;28;20069;-50
2021/12/27 03:48:19;;;;;;;6.78;6.07;;;;;;;;;;5012712;28;20037;-52
2021/12/27 03:50:44;;;;;;;12.02;5.60;;;;;;;;;;5006548;28;20042;-51
2021/12/27 03:53:10;;;;;;;5.20;4.50;;;;;;;;;;5006948;28;20037;-52
2021/12/27 03:55:36;;;;;;;8.90;7.03;;;;;;;;;;5007467;28;20037;-47
2021/12/27 03:58:09;;;;;;;10.30;6.07;;;;;;;;;;5003873;28;20034;-50
2021/12/27 04:03:10;;;;;;;6.28;5.28;;;;;;;;;;5002818;28;20103;-49
2021/12/27 04:05:36;;;;;;;6.25;4.78;;;;;;;;;;5005212;28;20415;-49
2021/12/27 04:08:09;;;;;;;8.75;6.18;;;;;;;;;;5004857;28;20034;-49
2021/12/27 04:10:35;;;;;;;5.22;4.35;;;;;;;;;;5005522;28;20048;-48
2021/12/27 04:13:00;;;;;;;6.82;5.63;;;;;;;;;;5003526;28;20034;-48
2021/12/27 04:15:26;;;;;;;11.75;5.30;;;;;;;;;;5008159;28;20018;-48
2021/12/27 04:17:52;;;;;;;6.25;5.40;;;;;;;;;;5011669;28;20065;-49
2021/12/27 04:20:18;;;;;;;12.20;5.72;;;;;;;;;;5011965;28;20121;-48
2021/12/27 04:22:44;;;;;;;7.72;6.13;;;;;;;;;;5007934;28;20026;-50
2021/12/27 04:25:09;;;;;;;11.40;5.00;;;;;;;;;;5008942;28;20037;-48
2021/12/27 04:27:35;;;;;;;9.43;6.75;;;;;;;;;;5010032;28;20030;-52
2021/12/27 04:30:00;;;;;;;6.88;4.68;;;;;;;;;;5010316;28;20076;-49
2021/12/27 04:32:25;;;;;;;9.27;6.72;;;;;;;;;;5012256;28;20033;-48
2021/12/27 04:34:52;;;;;;;10.18;6.43;;;;;;;;;;5008508;28;20460;-53
2021/12/27 04:37:18;;;;;;;6.25;5.55;;;;;;;;;;5000857;28;20038;-49
2021/12/27 04:39:43;;;;;;;5.72;5.15;;;;;;;;;;5005188;28;20057;-51
2021/12/27 04:42:09;;;;;;;9.27;5.85;;;;;;;;;;5007982;28;20340;-51
2021/12/27 04:44:34;;;;;;;10.38;5.50;;;;;;;;;;5006951;28;20047;-48
2021/12/27 04:47:00;;;;;;;5.45;4.53;;;;;;;;;;5003227;28;20037;-50
2021/12/27 04:49:26;;;;;;;16.02;7.43;;;;;;;;;;5009325;28;20033;-51
2021/12/27 04:51:51;;;;;;;5.68;5.05;;;;;;;;;;5009083;28;20040;-54
2021/12/27 04:54:17;;;;;;;6.30;5.70;;;;;;;;;;5012018;28;20025;-50
2021/12/27 04:56:42;;;;;;;13.73;6.20;;;;;;;;;;5001353;28;20069;-52
2021/12/27 04:59:08;;;;;;;9.35;6.18;;;;;;;;;;5008410;28;20104;-53
2021/12/27 05:01:33;;;;;;;9.57;7.07;;;;;;;;;;5010079;28;20049;-53
2021/12/27 05:03:59;;;;;;;7.18;6.13;;;;;;;;;;5010503;28;20030;-51
2021/12/27 05:06:24;;;;;;;6.53;5.80;;;;;;;;;;5009074;28;20503;-48
2021/12/27 05:08:53;;;;;;;5.82;5.28;;;;;;;;;;5007747;28;20042;-52
2021/12/27 05:11:19;;;;;;;6.32;5.72;;;;;;;;;;5007845;28;20080;-51
2021/12/27 05:13:44;;;;;;;7.45;5.43;;;;;;;;;;5003814;28;20037;-52
2021/12/27 05:16:09;;;;;;;6.03;4.93;;;;;;;;;;5002600;28;20034;-53
2021/12/27 05:18:35;;;;;;;6.13;5.53;;;;;;;;;;5003773;28;20046;-53
2021/12/27 05:21:00;;;;;;;8.63;6.10;;;;;;;;;;5005464;28;20034;-49
2021/12/27 05:23:26;;;;;;;13.52;6.60;;;;;;;;;;5012927;28;20076;-49
2021/12/27 05:25:51;;;;;;;6.47;5.88;;;;;;;;;;5002676;28;20035;-52
2021/12/27 05:28:17;;;;;;;6.85;5.07;;;;;;;;;;5002476;28;20060;-52
2021/12/27 05:30:43;;;;;;;7.50;5.45;;;;;;;;;;5010801;28;20033;-51
2021/12/27 05:33:10;;;;;;;7.90;5.50;;;;;;;;;;5012333;28;20523;-49
2021/12/27 05:35:35;;;;;;;7.25;6.05;;;;;;;;;;5005844;28;20105;-53
2021/12/27 05:38:01;;;;;;;5.25;4.78;;;;;;;;;;5012699;28;20037;-49
2021/12/27 05:40:26;;;;;;;7.32;6.25;;;;;;;;;;5008204;28;20033;-51
2021/12/27 05:42:53;;;;;;;6.50;5.63;;;;;;;;;;5008255;28;20135;-52
2021/12/27 05:45:19;;;;;;;15.20;6.32;;;;;;;;;;5006616;28;20037;-52
2021/12/27 05:47:45;;;;;;;6.30;5.15;;;;;;;;;;5005278;28;20034;-48
2021/12/27 05:50:12;;;;;;;9.32;6.32;;;;;;;;;;5006728;28;20031;-48
2021/12/27 05:52:38;;;;;;;7.25;6.07;;;;;;;;;;5002505;28;20044;-48
2021/12/27 05:55:05;;;;;;;6.25;5.10;;;;;;;;;;5005736;28;20356;-47
2021/12/27 05:57:31;;;;;;;7.00;5.55;;;;;;;;;;5005666;28;20026;-51
2021/12/27 05:59:57;;;;;;;6.15;5.47;;;;;;;;;;5010171;28;20726;-51
2021/12/27 06:02:23;;;;;;;7.38;5.57;;;;;;;;;;5001854;28;20058;-51
2021/12/27 06:04:48;;;;;;;5.68;4.88;;;;;;;;;;4997130;28;20376;-48
2021/12/27 06:07:13;;;;;;;7.40;5.95;;;;;;;;;;5007805;28;20038;-50
2021/12/27 06:09:39;;;;;;;6.40;5.10;;;;;;;;;;5006262;28;20105;-49
2021/12/27 06:12:05;;;;;;;6.43;4.68;;;;;;;;;;5005906;28;20038;-52
2021/12/27 06:14:30;;;;;;;8.65;6.50;;;;;;;;;;5009320;28;20534;-50
2021/12/27 06:16:56;;;;;;;6.38;5.78;;;;;;;;;;5008331;28;20053;-52
2021/12/27 06:19:21;;;;;;;7.97;5.68;;;;;;;;;;5010136;28;20101;-50
2021/12/27 06:21:47;;;;;;;7.78;5.55;;;;;;;;;;5007976;28;20426;-50
2021/12/27 06:24:13;;;;;;;6.60;5.90;;;;;;;;;;5007473;28;20030;-49
2021/12/27 06:26:38;;;;;;;9.32;7.18;;;;;;;;;;5006759;28;20470;-52
2021/12/27 06:29:03;;;;;;;7.40;5.78;;;;;;;;;;4999973;28;20033;-50
2021/12/27 06:31:29;;;;;;;6.95;6.30;;;;;;;;;;4998942;28;20104;-49
2021/12/27 06:33:54;;;;;;;11.23;6.80;;;;;;;;;;5006621;28;20098;-49
2021/12/27 06:36:19;;;;;;;7.28;5.68;;;;;;;;;;5005297;28;20025;-49
2021/12/27 06:38:45;;;;;;;4.68;4.05;;;;;;;;;;5008150;28;20468;-48
2021/12/27 06:41:10;;;;;;;11.20;6.25;;;;;;;;;;5006701;28;20116;-52
2021/12/27 06:43:36;;;;;;;7.15;4.78;;;;;;;;;;5005330;28;20109;-51
2021/12/27 06:46:02;;;;;;;6.28;5.68;;;;;;;;;;5006486;28;20451;-49
2021/12/27 06:48:28;;;;;;;7.38;5.18;;;;;;;;;;5003507;28;20577;-51
2021/12/27 06:50:53;;;;;;;9.55;6.53;;;;;;;;;;5004757;28;20034;-50
2021/12/27 06:53:19;;;;;;;9.25;5.57;;;;;;;;;;5001719;28;20077;-48
2021/12/27 06:55:46;;;;;;;6.93;4.63;;;;;;;;;;5008028;28;20037;-49
2021/12/27 06:58:12;;;;;;;5.95;4.97;;;;;;;;;;5005711;28;20033;-50
2021/12/27 07:00:38;;;;;;;8.68;6.25;;;;;;;;;;5010273;28;20372;-49
2021/12/27 07:03:04;;;;;;;10.32;7.68;;;;;;;;;;5006624;28;20038;-50
2021/12/27 07:05:29;;;;;;;6.43;5.40;;;;;;;;;;5001399;28;20099;-51
2021/12/27 07:07:55;;;;;;;6.65;6.05;;;;;;;;;;5001019;28;20062;-52
2021/12/27 07:10:22;;;;;;;7.40;4.88;;;;;;;;;;5008567;28;20033;-52
2021/12/27 07:12:48;;;;;;;5.55;4.05;;;;;;;;;;5010484;28;20038;-50
2021/12/27 07:15:13;;;;;;;6.93;4.55;;;;;;;;;;5005527;28;20037;-53
2021/12/27 07:17:39;;;;;;;6.68;5.90;;;;;;;;;;5007432;28;20042;-50
2021/12/27 07:20:06;;;;;;;6.55;5.25;;;;;;;;;;5001377;28;20022;-51
2021/12/27 07:22:32;;;;;;;6.45;5.68;;;;;;;;;;5006274;28;20484;-51
2021/12/27 07:24:57;;;;;;;7.38;6.32;;;;;;;;;;5007971;28;20034;-53
2021/12/27 07:27:23;;;;;;;6.20;5.15;;;;;;;;;;5004786;28;20021;-51
2021/12/27 07:29:48;;;;;;;7.85;5.47;;;;;;;;;;5005587;28;20050;-50
2021/12/27 07:32:13;;;;;;;6.30;5.32;;;;;;;;;;5011375;28;20036;-50
2021/12/27 07:34:39;;;;;;;5.63;4.57;;;;;;;;;;5013352;28;20034;-48
2021/12/27 07:37:05;;;;;;;7.22;4.65;;;;;;;;;;5005008;28;20577;-52
2021/12/27 07:39:30;;;;;;;6.22;4.32;;;;;;;;;;4998224;28;20066;-53
2021/12/27 07:41:55;;;;;;;9.02;5.25;;;;;;;;;;5002770;28;20033;-50
2021/12/27 07:44:21;;;;;;;6.78;6.18;;;;;;;;;;5001171;28;20542;-53
2021/12/27 07:46:46;;;;;;;5.07;4.57;;;;;;;;;;5005041;28;20472;-50
2021/12/27 07:49:15;;;;;;;5.70;5.10;;;;;;;;;;5014169;28;20068;-49
2021/12/27 07:51:41;;;;;;;12.25;5.05;;;;;;;;;;5009086;28;20369;-48
2021/12/27 07:54:07;;;;;;;8.35;4.63;;;;;;;;;;5009419;28;20408;-49
2021/12/27 07:56:33;;;;;;;5.38;4.85;;;;;;;;;;5017158;28;20096;-50
2021/12/27 07:59:03;;;;;;;5.05;4.55;;;;;;;;;;5010040;28;20041;-50
2021/12/27 08:01:30;;;;;;;5.13;4.63;;;;;;;;;;5009359;28;20068;-50
2021/12/27 08:03:56;;;;;;;6.18;4.82;;;;;;;;;;5014331;28;20033;-49
2021/12/27 08:06:21;;;;;;;7.30;5.43;;;;;;;;;;5009206;28;20036;-51
2021/12/27 08:08:46;;;;;;;5.28;4.78;;;;;;;;;;5008371;28;20042;-49
2021/12/27 08:11:12;;;;;;;6.15;5.45;;;;;;;;;;5005590;28;20068;-51
2021/12/27 08:13:37;;;;;;;5.30;4.50;;;;;;;;;;5006510;28;20124;-51
2021/12/27 08:16:03;;;;;;;4.53;3.97;;;;;;;;;;5008742;28;20026;-51
2021/12/27 08:18:29;;;;;;;6.30;5.15;;;;;;;;;;5003440;28;20030;-52
2021/12/27 08:20:55;;;;;;;5.60;5.03;;;;;;;;;;4999307;28;20149;-51
2021/12/27 08:23:21;;;;;;;5.90;5.30;;;;;;;;;;5007609;28;20030;-52
2021/12/27 08:25:46;;;;;;;4.88;4.18;;;;;;;;;;5020290;28;20095;-54
2021/12/27 08:28:12;;;;;;;5.95;5.35;;;;;;;;;;5007860;28;20029;-50
2021/12/27 08:30:37;;;;;;;5.55;5.05;;;;;;;;;;5006409;28;20033;-52
2021/12/27 08:33:02;;;;;;;7.38;5.47;;;;;;;;;;5005953;28;20037;-54
2021/12/27 08:35:28;;;;;;;5.72;4.70;;;;;;;;;;5008364;28;20106;-53
2021/12/27 08:37:54;;;;;;;5.68;5.13;;;;;;;;;;5001381;28;20033;-51
2021/12/27 08:40:19;;;;;;;5.93;4.40;;;;;;;;;;5011947;28;20452;-53
2021/12/27 08:42:44;;;;;;;4.80;4.30;;;;;;;;;;5010177;28;20038;-51
2021/12/27 08:45:11;;;;;;;5.30;4.40;;;;;;;;;;5013066;28;20029;-53
2021/12/27 08:47:37;;;;;;;5.15;4.57;;;;;;;;;;5013628;28;20333;-53
2021/12/27 08:50:04;;;;;;;6.35;4.80;;;;;;;;;;5009644;28;20037;-51
2021/12/27 08:52:30;;;;;;;5.03;4.53;;;;;;;;;;5007417;28;20441;-53
2021/12/27 08:54:56;;;;;;;5.78;5.22;;;;;;;;;;5006795;28;20074;-53
2021/12/27 08:57:22;;;;;;;5.97;5.40;;;;;;;;;;5001226;28;20110;-51
2021/12/27 08:59:47;;;;;;;5.22;4.70;;;;;;;;;;5005738;28;20046;-50
2021/12/27 09:02:13;;;;;;;5.68;5.18;;;;;;;;;;5008204;28;20526;-53
2021/12/27 09:04:38;;;;;;;5.32;4.82;;;;;;;;;;5010104;28;20184;-53
2021/12/27 09:07:04;;;;;;;5.95;4.68;;;;;;;;;;5012608;28;20048;-51
2021/12/27 09:09:29;;;;;;;5.80;5.15;;;;;;;;;;5013934;28;20346;-53
2021/12/27 09:11:55;;;;;;;4.45;4.05;;;;;;;;;;5007379;28;20030;-53
2021/12/27 09:14:20;;;;;;;5.20;4.70;;;;;;;;;;5000441;28;20490;-50
2021/12/27 09:16:46;;;;;;;5.43;4.90;;;;;;;;;;5012165;28;20038;-50
2021/12/27 09:19:14;;;;;;;5.28;4.70;;;;;;;;;;5002852;28;20034;-49
2021/12/27 09:21:40;;;;;;;5.00;4.18;;;;;;;;;;5001130;28;20034;-49
2021/12/27 09:24:05;;;;;;;7.43;6.53;;;;;;;;;;5003829;28;20042;-53
2021/12/27 09:26:30;;;;;;;5.10;4.63;;;;;;;;;;5008081;28;20033;-52
2021/12/27 09:28:57;;;;;;;6.05;4.15;;;;;;;;;;5006378;28;20037;-52
2021/12/27 09:31:23;;;;;;;10.00;5.22;;;;;;;;;;5001523;28;20026;-53
2021/12/27 09:33:48;;;;;;;5.78;4.88;;;;;;;;;;4998184;28;20053;-51
2021/12/27 09:36:14;;;;;;;5.53;5.03;;;;;;;;;;5004026;28;20141;-53
2021/12/27 09:38:39;;;;;;;5.68;4.55;;;;;;;;;;5003467;28;20060;-51
2021/12/27 09:41:04;;;;;;;5.90;5.30;;;;;;;;;;5007045;28;20026;-52
2021/12/27 09:43:30;;;;;;;5.45;4.93;;;;;;;;;;5002804;28;20448;-54
2021/12/27 09:45:55;;;;;;;7.63;5.97;;;;;;;;;;5007946;28;20030;-53
2021/12/27 09:48:21;;;;;;;5.15;4.53;;;;;;;;;;5010321;28;20038;-54
2021/12/27 09:50:49;;;;;;;8.73;4.35;;;;;;;;;;5006003;28;20100;-53
2021/12/27 09:53:15;;;;;;;6.63;6.03;;;;;;;;;;5014253;28;20107;-52
2021/12/27 09:55:40;;;;;;;5.90;5.07;;;;;;;;;;5004689;28;20038;-52
2021/12/27 09:58:06;;;;;;;7.32;4.70;;;;;;;;;;5009593;28;20107;-53
2021/12/27 10:00:32;;;;;;;5.57;4.80;;;;;;;;;;5002663;28;20034;-53
2021/12/27 10:02:58;;;;;;;5.72;5.18;;;;;;;;;;5008587;28;20030;-51
2021/12/27 10:05:26;;;;;;;6.60;5.03;;;;;;;;;;5007903;28;20038;-53
2021/12/27 10:07:51;;;;;;;7.85;5.50;;;;;;;;;;5007442;28;20052;-51
2021/12/27 10:10:17;;;;;;;17.35;5.00;;;;;;;;;;5002428;28;20021;-50
2021/12/27 10:12:43;;;;;;;5.45;4.93;;;;;;;;;;5007095;28;20038;-53
2021/12/27 10:15:11;;;;;;;5.22;4.53;;;;;;;;;;5007631;28;20038;-50
2021/12/27 10:17:38;;;;;;;8.75;4.10;;;;;;;;;;5004477;28;20054;-52
2021/12/27 10:20:15;;;;;;;4.35;3.95;;;;;;;;;;5004827;28;20030;-54
2021/12/27 10:22:47;;;;;;;4.95;4.47;;;;;;;;;;5005647;28;20035;-51
2021/12/27 10:25:25;;;;;;;7.03;5.18;;;;;;;;;;5008685;28;20037;-53
2021/12/27 10:27:53;;;;;;;7.50;5.50;;;;;;;;;;5007328;28;20068;-51
2021/12/27 10:30:45;;;;;;;4.72;4.22;;;;;;;;;;5008772;28;20032;-54
2021/12/27 10:33:14;;;;;;;;;;;;;;;;;;5007548;28;20048;-50
2021/12/27 10:35:50;;;;;;;4.18;3.78;;;;;;;;;;5055264;28;20423;-52
2021/12/27 10:38:27;;;;;;;11.90;6.57;;;;;;;;;;5055221;28;20427;-52
2021/12/27 10:40:55;;;;;;;5.63;5.03;;;;;;;;;;5056040;28;20056;-53
2021/12/27 10:43:35;;;;;;;5.25;4.78;;;;;;;;;;5055475;28;20497;-53
2021/12/27 10:46:02;;;;;;;8.88;5.53;;;;;;;;;;5054448;28;20037;-52
2021/12/27 10:48:40;;;;;;;8.63;4.63;;;;;;;;;;5056416;28;20033;-51
2021/12/27 10:51:06;;;;;;;5.25;4.75;;;;;;;;;;5055263;28;20158;-53
2021/12/27 10:53:49;;;;;;;6.05;5.38;;;;;;;;;;5054004;28;20046;-51
2021/12/27 10:56:16;;;;;;;5.95;5.07;;;;;;;;;;5055952;28;20049;-52
2021/12/27 10:58:50;;;;;;;6.40;5.10;;;;;;;;;;5054289;28;20095;-54
2021/12/27 11:01:18;;;;;;;5.22;4.72;;;;;;;;;;5055015;28;20032;-50
2021/12/27 11:03:45;;;;;;;6.00;5.20;;;;;;;;;;5053953;28;20055;-48
2021/12/27 11:06:17;;;;;;;5.80;5.30;;;;;;;;;;5052781;28;20187;-51
2021/12/27 11:08:44;;;;;;;5.07;4.57;;;;;;;;;;5049881;28;20033;-53
2021/12/27 11:11:14;;;;;;;5.65;4.93;;;;;;;;;;5048942;28;20029;-52
2021/12/27 11:13:41;;;;;;;5.35;4.60;;;;;;;;;;5051164;28;20051;-52
2021/12/27 11:16:06;;;;;;;7.25;6.40;;;;;;;;;;5054251;28;20037;-48
2021/12/27 11:18:33;;;;;;;4.95;4.45;;;;;;;;;;5052358;28;20411;-52
2021/12/27 11:21:21;;;;;;;7.72;6.18;;;;;;;;;;5050213;28;20037;-49
2021/12/27 11:23:49;;;;;;;4.90;4.43;;;;;;;;;;5056186;28;20039;-50
2021/12/27 11:26:22;;;;;;;13.93;5.65;;;;;;;;;;5055202;28;20860;-53
2021/12/27 11:28:49;;;;;;;5.47;4.97;;;;;;;;;;5054445;28;20036;-58
2021/12/27 11:31:23;;;;;;;5.45;4.95;;;;;;;;;;5070828;28;20025;-57
2021/12/27 11:34:03;;;;;;;11.57;5.30;;;;;;;;;;5054740;28;20482;-51
2021/12/27 11:36:40;;;;;;;7.05;6.40;;;;;;;;;;5054155;28;20044;-57
2021/12/27 11:39:26;;;;;;;6.53;5.32;;;;;;;;;;5053951;28;20037;-57
2021/12/27 11:42:09;;;;;;;7.47;5.55;;;;;;;;;;5056551;28;20028;-57
2021/12/27 11:44:53;;;;;;;6.07;5.47;;;;;;;;;;5054138;28;20470;-57
2021/12/27 11:47:24;;;;;;;5.38;4.88;;;;;;;;;;5037652;28;20041;-58
2021/12/27 11:49:53;;;;;;;10.32;6.15;;;;;;;;;;5043083;28;20118;-57
2021/12/27 11:52:34;;;;;;;9.52;5.57;;;;;;;;;;5037739;28;20072;-57
2021/12/27 11:55:06;;;;;;;7.15;4.93;;;;;;;;;;5042455;28;20033;-51
2021/12/27 11:57:48;;;;;;;6.35;5.75;;;;;;;;;;5041012;28;20118;-49
2021/12/27 12:00:28;;;;;;;6.47;5.10;;;;;;;;;;5042216;28;20021;-57
2021/12/27 12:03:02;;;;;;;8.60;5.07;;;;;;;;;;5043084;28;20065;-58
2021/12/27 12:05:54;;;;;;;6.78;5.68;;;;;;;;;;5040719;28;20101;-54
2021/12/27 12:08:30;;;;;;;6.47;5.15;;;;;;;;;;5033905;28;20073;-53
2021/12/27 12:11:00;;;;;;;6.05;5.45;;;;;;;;;;5042700;28;20029;-58
2021/12/27 12:13:27;;;;;;;6.53;5.93;;;;;;;;;;5041408;28;20029;-58
2021/12/27 12:15:57;;;;;;;7.10;5.82;;;;;;;;;;5040517;28;20043;-51
2021/12/27 12:18:23;;;;;;;7.60;5.32;;;;;;;;;;5040390;28;20034;-52
2021/12/27 12:20:49;;;;;;;9.82;5.25;;;;;;;;;;5042627;28;20103;-50
2021/12/27 12:23:14;;;;;;;6.32;5.53;;;;;;;;;;5043504;28;20060;-49
2021/12/27 12:25:40;;;;;;;6.43;5.50;;;;;;;;;;5040490;28;20045;-52
2021/12/27 12:28:15;;;;;;;7.20;5.75;;;;;;;;;;5039200;28;20032;-49
2021/12/27 12:30:48;;;;;;;7.32;5.45;;;;;;;;;;5039117;28;20029;-52
2021/12/27 12:33:17;;;;;;;5.43;4.65;;;;;;;;;;5041504;28;20458;-52
2021/12/27 12:35:44;;;;;;;8.25;6.25;;;;;;;;;;5037658;28;20044;-51
2021/12/27 12:38:27;;;;;;;9.00;6.88;;;;;;;;;;5039037;28;20076;-51
2021/12/27 12:41:00;;;;;;;10.85;6.05;;;;;;;;;;5043249;28;20386;-52
2021/12/27 12:43:40;;;;;;;6.68;5.63;;;;;;;;;;5036514;28;20128;-53
2021/12/27 12:46:23;;;;;;;10.03;6.83;;;;;;;;;;5039868;28;20045;-49
2021/12/27 12:49:05;;;;;;;6.57;5.95;;;;;;;;;;5057561;28;20790;-53
2021/12/27 12:51:33;;;;;;;7.53;6.82;;;;;;;;;;5035245;28;20444;-57
2021/12/27 12:53:58;;;;;;;8.77;6.50;;;;;;;;;;5038392;28;20068;-58
2021/12/27 12:56:30;;;;;;;8.13;5.70;;;;;;;;;;5040074;28;20032;-58
2021/12/27 12:58:55;;;;;;;9.50;6.80;;;;;;;;;;5038678;28;20038;-58
2021/12/27 13:01:21;;;;;;;6.45;5.72;;;;;;;;;;5039646;28;20030;-58
2021/12/27 13:03:46;;;;;;;7.30;5.57;;;;;;;;;;5037083;28;20133;-57
2021/12/27 13:06:12;;;;;;;6.85;6.07;;;;;;;;;;5039446;28;20108;-54
2021/12/27 13:08:37;;;;;;;8.32;6.05;;;;;;;;;;5040754;28;20363;-52
2021/12/27 13:11:03;;;;;;;7.18;6.45;;;;;;;;;;5050214;28;20047;-53
2021/12/27 13:13:30;;;;;;;6.97;6.28;;;;;;;;;;5042188;28;20182;-52
2021/12/27 13:15:57;;;;;;;7.30;6.15;;;;;;;;;;5038035;28;20029;-50
2021/12/27 13:18:25;;;;;;;8.40;7.50;;;;;;;;;;5043304;28;20041;-52
2021/12/27 13:20:52;;;;;;;7.07;5.82;;;;;;;;;;5041910;28;20041;-54
2021/12/27 13:23:20;;;;;;;11.75;7.38;;;;;;;;;;5041762;28;20401;-51
2021/12/27 13:25:51;;;;;;;16.35;6.20;;;;;;;;;;5038179;28;20510;-55
2021/12/27 13:28:42;;;;;;;8.13;6.07;;;;;;;;;;5038444;28;20036;-53
2021/12/27 13:31:10;;;;;;;11.48;7.28;;;;;;;;;;5037899;28;20033;-51
2021/12/27 13:33:44;;;;;;;10.48;6.05;;;;;;;;;;5040331;28;20095;-53
2021/12/27 13:36:14;;;;;;;6.47;5.32;;;;;;;;;;5039288;28;20040;-52
2021/12/27 13:38:56;;;;;;;5.78;4.85;;;;;;;;;;5040562;28;20065;-54
2021/12/27 13:41:28;;;;;;;7.85;5.47;;;;;;;;;;5038529;28;20025;-53
2021/12/27 13:43:56;;;;;;;5.13;4.63;;;;;;;;;;5043779;28;20442;-53
2021/12/27 13:46:26;;;;;;;6.65;6.05;;;;;;;;;;5039732;28;20111;-53
2021/12/27 13:48:53;;;;;;;10.15;6.82;;;;;;;;;;5038818;28;20052;-54
2021/12/27 13:51:22;;;;;;;10.23;6.32;;;;;;;;;;5039437;28;20032;-53
2021/12/27 13:54:09;;;;;;;6.30;5.70;;;;;;;;;;5039715;28;20017;-54
2021/12/27 13:56:37;;;;;;;5.80;5.03;;;;;;;;;;5037925;28;20025;-52
2021/12/27 13:59:09;;;;;;;9.52;6.97;;;;;;;;;;5035945;28;20102;-50
2021/12/27 14:01:36;;;;;;;7.35;6.13;;;;;;;;;;5040926;28;20044;-51
2021/12/27 14:04:32;;;;;;;8.82;6.75;;;;;;;;;;5038480;28;20032;-56
2021/12/27 14:07:06;;;;;;;7.80;6.00;;;;;;;;;;5031370;28;20094;-54
2021/12/27 14:09:37;;;;;;;6.22;5.68;;;;;;;;;;5039879;28;20108;-54
2021/12/27 14:12:08;;;;;;;6.90;6.18;;;;;;;;;;5037448;28;20031;-54
2021/12/27 14:14:48;;;;;;;6.53;5.63;;;;;;;;;;5036672;28;20029;-55
2021/12/27 14:17:19;;;;;;;6.82;6.15;;;;;;;;;;5036877;28;20144;-53
2021/12/27 14:19:59;;;;;;;6.28;5.65;;;;;;;;;;5038572;28;20033;-54
2021/12/27 14:22:26;;;;;;;6.40;5.63;;;;;;;;;;5038395;28;20033;-53
2021/12/27 14:24:56;;;;;;;9.88;6.68;;;;;;;;;;5038885;28;20021;-53
2021/12/27 14:27:23;;;;;;;7.75;6.95;;;;;;;;;;5036859;28;20052;-49
2021/12/27 14:30:02;;;;;;;10.30;6.95;;;;;;;;;;5039338;28;20061;-52
2021/12/27 14:32:28;;;;;;;9.43;5.35;;;;;;;;;;5053281;28;20500;-52
2021/12/27 14:34:53;;;;;;;6.63;5.28;;;;;;;;;;5036502;28;20035;-53
2021/12/27 14:37:21;;;;;;;6.93;6.20;;;;;;;;;;5039566;28;20037;-52
2021/12/27 14:39:47;;;;;;;6.30;5.68;;;;;;;;;;5039178;28;20037;-50
2021/12/27 14:42:13;;;;;;;8.02;5.78;;;;;;;;;;5037316;28;20052;-52
2021/12/27 14:44:52;;;;;;;7.75;5.70;;;;;;;;;;5035498;28;20512;-49
2021/12/27 14:47:21;;;;;;;8.98;6.05;;;;;;;;;;5038521;28;20037;-52
2021/12/27 14:49:47;;;;;;;7.53;6.10;;;;;;;;;;5036393;28;20491;-48
2021/12/27 14:52:13;;;;;;;6.95;6.22;;;;;;;;;;5039744;28;20025;-52